Time;durP1;ratioP1;P1;durP2;ratioP2;P2;SDS_P1;SDS_P2;PMS_P1;PMS_P2;Temp;Humidity;BMP_temperature;BMP_pressure;BME280_temperature;BME280_humidity;BME280_pressure;Samples;Min_cycle;Max_cycle;Signal;HPM_P1;HPM_P2
2023/03/11 00:02:15;;;;;;;2.47;0.88;;;10.20;54.10;;;;;;5034748;28;20040;-74
2023/03/11 00:04:41;;;;;;;2.10;0.70;;;10.30;54.00;;;;;;5034768;28;20022;-73
2023/03/11 00:07:08;;;;;;;2.13;1.20;;;10.30;53.90;;;;;;5036682;28;20414;-73
2023/03/11 00:09:35;;;;;;;3.45;0.57;;;10.30;53.70;;;;;;5054682;28;20038;-73
2023/03/11 00:12:02;;;;;;;0.70;0.65;;;10.30;53.10;;;;;;5054700;28;20063;-73
2023/03/11 00:14:28;;;;;;;1.20;0.70;;;10.30;53.00;;;;;;5054675;28;20021;-73
2023/03/11 00:16:54;;;;;;;0.70;0.68;;;10.40;53.00;;;;;;5054593;28;20044;-74
2023/03/11 00:19:20;;;;;;;1.95;0.82;;;10.40;52.40;;;;;;5054445;28;20100;-74
2023/03/11 00:21:46;;;;;;;1.13;0.50;;;10.40;51.20;;;;;;5054517;28;20060;-74
2023/03/11 00:24:11;;;;;;;1.95;0.70;;;10.30;51.10;;;;;;5051230;28;20071;-73
2023/03/11 00:26:37;;;;;;;1.13;0.65;;;10.40;51.00;;;;;;5050903;28;20060;-74
2023/03/11 00:29:03;;;;;;;0.85;0.80;;;10.40;50.90;;;;;;5041718;28;20033;-73
2023/03/11 00:31:29;;;;;;;1.13;0.90;;;10.40;51.20;;;;;;5034143;28;20540;-73
2023/03/11 00:33:58;;;;;;;1.50;0.60;;;10.40;51.40;;;;;;5040719;28;20032;-73
2023/03/11 00:36:30;;;;;;;2.92;0.70;;;10.40;50.60;;;;;;5053987;28;20024;-73
2023/03/11 00:38:56;;;;;;;0.68;0.50;;;10.30;49.40;;;;;;5053749;28;20024;-73
2023/03/11 00:41:22;;;;;;;1.58;0.93;;;10.20;49.00;;;;;;5051963;28;20082;-73
2023/03/11 00:43:48;;;;;;;1.25;0.85;;;10.10;48.00;;;;;;5053621;28;20108;-73
2023/03/11 00:46:14;;;;;;;1.40;0.95;;;10.00;47.40;;;;;;5053967;28;20033;-73
2023/03/11 00:48:39;;;;;;;1.00;0.90;;;9.90;46.60;;;;;;5053845;28;20033;-73
2023/03/11 00:51:14;;;;;;;0.90;0.70;;;9.80;47.20;;;;;;5050709;28;20047;-73
2023/03/11 00:53:41;;;;;;;2.92;1.10;;;9.70;46.90;;;;;;5053762;28;20036;-73
2023/03/11 00:56:13;;;;;;;1.38;0.77;;;9.70;46.80;;;;;;5053626;28;20021;-73
2023/03/11 00:58:40;;;;;;;2.03;0.90;;;9.60;47.20;;;;;;5043725;28;20040;-73
2023/03/11 01:01:08;;;;;;;1.85;1.17;;;9.60;47.50;;;;;;5033970;28;20029;-73
2023/03/11 01:03:35;;;;;;;1.10;1.00;;;9.60;48.00;;;;;;5034054;28;20108;-73
2023/03/11 01:06:00;;;;;;;2.83;0.93;;;9.60;48.50;;;;;;5032379;28;20029;-73
2023/03/11 01:08:26;;;;;;;0.80;0.80;;;9.50;48.00;;;;;;5033796;28;20102;-73
2023/03/11 01:10:52;;;;;;;5.07;1.05;;;9.50;48.40;;;;;;5065484;28;20506;-73
2023/03/11 01:13:18;;;;;;;0.75;0.75;;;9.50;48.60;;;;;;5033475;28;20032;-73
2023/03/11 01:15:44;;;;;;;1.70;0.98;;;9.40;48.10;;;;;;5033510;28;20022;-73
2023/03/11 01:18:10;;;;;;;3.10;1.27;;;9.30;47.60;;;;;;5048260;28;20029;-73
2023/03/11 01:20:37;;;;;;;1.08;0.93;;;9.30;48.10;;;;;;5053279;28;20063;-73
2023/03/11 01:23:04;;;;;;;1.10;1.00;;;9.30;48.00;;;;;;5053226;28;20390;-73
2023/03/11 01:25:30;;;;;;;1.15;0.90;;;9.30;48.00;;;;;;5053327;28;20509;-73
2023/03/11 01:27:55;;;;;;;1.98;0.93;;;9.20;48.00;;;;;;5049530;28;20057;-73
2023/03/11 01:30:23;;;;;;;1.08;0.98;;;9.20;47.70;;;;;;5033106;28;20025;-73
2023/03/11 01:32:50;;;;;;;1.02;0.90;;;9.20;47.70;;;;;;5033531;28;20033;-73
2023/03/11 01:35:18;;;;;;;1.20;1.05;;;9.20;47.50;;;;;;5033148;28;20441;-73
2023/03/11 01:37:45;;;;;;;1.10;0.90;;;9.20;47.70;;;;;;5075328;28;20493;-73
2023/03/11 01:40:29;;;;;;;3.33;1.17;;;9.20;47.60;;;;;;5051681;28;20029;-73
2023/03/11 01:42:55;;;;;;;0.93;0.88;;;9.20;47.10;;;;;;5052986;28;20033;-73
2023/03/11 01:45:40;;;;;;;1.40;1.20;;;9.20;47.20;;;;;;5052778;28;20079;-73
2023/03/11 01:48:08;;;;;;;1.20;1.10;;;9.20;47.70;;;;;;5052717;28;20394;-73
2023/03/11 01:50:42;;;;;;;1.50;0.80;;;9.20;47.20;;;;;;5052452;28;20056;-73
2023/03/11 01:53:08;;;;;;;1.75;0.90;;;9.10;47.00;;;;;;5052979;28;20159;-73
2023/03/11 01:55:35;;;;;;;1.10;1.00;;;9.20;47.30;;;;;;5052819;28;20521;-73
2023/03/11 01:58:04;;;;;;;0.85;0.73;;;9.20;47.00;;;;;;5049918;28;20033;-73
2023/03/11 02:00:30;;;;;;;1.20;1.00;;;9.10;46.00;;;;;;5038582;28;20056;-73
2023/03/11 02:03:00;;;;;;;3.35;0.85;;;9.10;45.60;;;;;;5047317;28;20029;-73
2023/03/11 02:05:26;;;;;;;0.88;0.77;;;9.00;45.10;;;;;;5032668;28;20483;-73
2023/03/11 02:07:53;;;;;;;1.27;0.80;;;9.00;45.10;;;;;;5032706;28;20030;-74
2023/03/11 02:10:19;;;;;;;1.15;0.80;;;8.90;44.40;;;;;;5064740;28;20477;-73
2023/03/11 02:12:47;;;;;;;0.88;0.68;;;8.80;44.60;;;;;;5032721;28;20017;-72
2023/03/11 02:15:14;;;;;;;1.98;0.60;;;8.80;44.30;;;;;;5032655;28;20014;-73
2023/03/11 02:17:42;;;;;;;1.95;0.80;;;8.70;44.40;;;;;;5043369;28;20049;-73
2023/03/11 02:20:37;;;;;;;1.42;0.68;;;8.70;43.50;;;;;;5052676;28;20449;-73
2023/03/11 02:23:02;;;;;;;;;;;8.60;43.70;;;;;;5043321;28;20449;-73
2023/03/11 02:25:49;;;;;;;0.93;0.63;;;8.70;45.40;;;;;;5052517;28;19954;-73
2023/03/11 02:28:17;;;;;;;1.30;0.50;;;8.60;44.00;;;;;;5048049;28;20021;-73
2023/03/11 02:30:43;;;;;;;0.80;0.80;;;8.60;43.80;;;;;;5032539;28;20386;-73
2023/03/11 02:33:10;;;;;;;4.45;0.60;;;8.50;42.90;;;;;;5050996;28;20492;-72
2023/03/11 02:35:36;;;;;;;0.40;0.40;;;8.40;43.00;;;;;;5037080;28;20425;-73
2023/03/11 02:38:02;;;;;;;0.82;0.70;;;8.30;42.50;;;;;;5032505;28;20031;-73
2023/03/11 02:40:40;;;;;;;1.35;0.50;;;8.30;42.70;;;;;;5032381;28;20077;-73
2023/03/11 02:43:13;;;;;;;0.85;0.30;;;8.20;42.10;;;;;;5032512;28;20025;-73
2023/03/11 02:45:40;;;;;;;0.82;0.70;;;8.20;42.20;;;;;;5032487;28;20030;-73
2023/03/11 02:48:09;;;;;;;0.50;0.40;;;8.20;42.20;;;;;;5031567;28;20032;-73
2023/03/11 02:50:36;;;;;;;7.22;0.60;;;8.20;42.00;;;;;;5032325;28;20495;-73
2023/03/11 02:53:03;;;;;;;0.77;0.43;;;8.10;41.60;;;;;;5035100;28;20021;-73
2023/03/11 02:55:29;;;;;;;1.63;0.50;;;8.10;41.70;;;;;;5052321;28;20021;-73
2023/03/11 02:57:55;;;;;;;0.50;0.40;;;8.00;42.00;;;;;;5053215;28;20118;-73
2023/03/11 03:00:21;;;;;;;1.08;0.40;;;8.00;41.60;;;;;;5036011;28;20379;-73
2023/03/11 03:02:51;;;;;;;1.27;0.60;;;7.90;41.10;;;;;;5034574;28;20075;-73
2023/03/11 03:05:19;;;;;;;0.40;0.40;;;7.90;41.00;;;;;;5036114;28;20115;-73
2023/03/11 03:07:48;;;;;;;0.30;0.30;;;7.90;41.30;;;;;;5035815;28;20059;-73
2023/03/11 03:10:15;;;;;;;4.13;0.60;;;7.90;40.80;;;;;;5035882;28;20036;-73
2023/03/11 03:12:41;;;;;;;1.65;0.30;;;7.80;41.40;;;;;;5035761;28;20116;-73
2023/03/11 03:15:08;;;;;;;1.48;0.55;;;7.80;40.50;;;;;;5068018;28;20052;-73
2023/03/11 03:17:34;;;;;;;0.30;0.30;;;7.80;41.10;;;;;;5045863;28;20029;-73
2023/03/11 03:20:00;;;;;;;0.40;0.40;;;7.80;40.70;;;;;;5054684;28;20382;-73
2023/03/11 03:22:28;;;;;;;0.95;0.65;;;7.70;40.30;;;;;;5055586;28;20056;-73
2023/03/11 03:24:53;;;;;;;0.93;0.80;;;7.70;41.30;;;;;;5055579;28;20032;-73
2023/03/11 03:27:19;;;;;;;0.40;0.40;;;7.70;41.40;;;;;;5055497;28;20021;-73
2023/03/11 03:29:45;;;;;;;0.50;0.35;;;7.70;41.50;;;;;;5039111;28;20068;-73
2023/03/11 03:32:11;;;;;;;1.38;0.30;;;7.70;41.90;;;;;;5052862;28;20482;-73
2023/03/11 03:34:37;;;;;;;0.20;0.20;;;7.70;42.00;;;;;;5035550;28;20064;-73
2023/03/11 03:37:03;;;;;;;3.63;0.40;;;7.70;41.20;;;;;;5035394;28;20034;-73
2023/03/11 03:39:28;;;;;;;0.40;0.40;;;7.70;41.40;;;;;;5035321;28;20026;-74
2023/03/11 03:41:54;;;;;;;0.35;0.30;;;7.70;41.20;;;;;;5035466;28;20033;-73
2023/03/11 03:44:20;;;;;;;0.63;0.30;;;7.60;40.60;;;;;;5033973;28;20417;-73
2023/03/11 03:46:46;;;;;;;0.40;0.32;;;7.60;40.70;;;;;;5035162;28;20025;-73
2023/03/11 03:49:11;;;;;;;0.30;0.30;;;7.50;40.30;;;;;;5034871;28;20422;-73
2023/03/11 03:51:37;;;;;;;0.30;0.30;;;7.50;40.40;;;;;;5037787;28;20543;-73
2023/03/11 03:54:03;;;;;;;0.35;0.30;;;7.60;40.70;;;;;;5043652;28;20021;-73
2023/03/11 03:56:29;;;;;;;0.25;0.25;;;7.60;40.90;;;;;;5035620;28;20022;-73
2023/03/11 03:58:54;;;;;;;0.38;0.38;;;7.60;41.00;;;;;;5046234;28;20470;-73
2023/03/11 04:01:20;;;;;;;0.50;0.50;;;7.60;41.30;;;;;;5035217;28;20021;-73
2023/03/11 04:03:46;;;;;;;0.40;0.40;;;7.60;41.60;;;;;;5034893;28;20053;-73
2023/03/11 04:06:18;;;;;;;0.85;0.50;;;7.50;41.40;;;;;;5034872;28;20038;-73
2023/03/11 04:08:43;;;;;;;0.98;0.50;;;7.50;41.90;;;;;;5034899;28;20430;-73
2023/03/11 04:11:09;;;;;;;0.50;0.40;;;7.50;41.80;;;;;;5034956;28;20048;-73
2023/03/11 04:13:35;;;;;;;0.75;0.60;;;7.50;42.20;;;;;;5033650;28;20025;-73
2023/03/11 04:16:05;;;;;;;3.45;0.52;;;7.50;42.70;;;;;;5034650;28;20493;-73
2023/03/11 04:18:31;;;;;;;0.50;0.50;;;7.50;42.50;;;;;;5052723;28;20373;-73
2023/03/11 04:20:57;;;;;;;0.47;0.47;;;7.40;42.40;;;;;;5054849;28;20120;-73
2023/03/11 04:23:23;;;;;;;0.65;0.50;;;7.40;42.70;;;;;;5054405;28;20118;-73
2023/03/11 04:25:49;;;;;;;1.17;0.60;;;7.40;42.80;;;;;;5054522;28;20363;-73
2023/03/11 04:28:15;;;;;;;1.15;0.70;;;7.40;43.00;;;;;;5048606;28;20056;-73
2023/03/11 04:30:40;;;;;;;0.77;0.60;;;7.40;43.00;;;;;;5034403;28;20544;-73
2023/03/11 04:33:06;;;;;;;0.65;0.60;;;7.30;43.10;;;;;;5034412;28;20052;-73
2023/03/11 04:35:32;;;;;;;0.88;0.60;;;7.30;43.20;;;;;;5034416;28;20031;-73
2023/03/11 04:37:59;;;;;;;0.68;0.68;;;7.30;43.50;;;;;;5034528;28;20025;-73
2023/03/11 04:40:25;;;;;;;0.70;0.60;;;7.30;43.50;;;;;;5034544;28;20036;-73
2023/03/11 04:42:52;;;;;;;1.67;0.60;;;7.30;43.60;;;;;;5034396;28;20025;-73
2023/03/11 04:45:18;;;;;;;1.13;0.70;;;7.30;43.80;;;;;;5034106;28;20025;-73
2023/03/11 04:47:50;;;;;;;0.63;0.63;;;7.30;43.80;;;;;;5034210;28;20017;-73
2023/03/11 04:50:17;;;;;;;0.80;0.50;;;7.30;43.80;;;;;;5068668;28;20091;-73
2023/03/11 04:52:43;;;;;;;1.42;0.60;;;7.20;43.90;;;;;;5053761;28;20032;-73
2023/03/11 04:55:10;;;;;;;2.05;0.98;;;7.20;43.90;;;;;;5053692;28;20117;-72
2023/03/11 04:57:36;;;;;;;1.45;0.60;;;7.20;44.10;;;;;;5035537;28;20022;-73
2023/03/11 05:00:05;;;;;;;0.50;0.50;;;7.20;44.20;;;;;;5038478;28;20035;-73
2023/03/11 05:02:31;;;;;;;0.75;0.60;;;7.20;44.20;;;;;;5053604;28;20025;-73
2023/03/11 05:04:57;;;;;;;0.85;0.60;;;7.20;44.60;;;;;;5052462;28;20036;-72
2023/03/11 05:07:23;;;;;;;0.57;0.55;;;7.20;44.70;;;;;;5036021;28;20029;-73
2023/03/11 05:09:48;;;;;;;1.88;0.75;;;7.20;44.90;;;;;;5033730;28;20041;-72
2023/03/11 05:12:14;;;;;;;1.42;0.70;;;7.20;45.20;;;;;;5033608;28;20075;-72
2023/03/11 05:14:40;;;;;;;0.85;0.60;;;7.30;45.30;;;;;;5033598;28;20033;-73
2023/03/11 05:17:06;;;;;;;0.80;0.70;;;7.30;45.30;;;;;;5039616;28;20078;-72
2023/03/11 05:19:34;;;;;;;0.90;0.80;;;7.30;45.50;;;;;;5053174;28;20103;-73
2023/03/11 05:22:02;;;;;;;1.55;0.82;;;7.30;45.60;;;;;;5053906;28;20378;-73
2023/03/11 05:24:28;;;;;;;1.10;0.90;;;7.30;45.80;;;;;;5053476;28;20079;-73
2023/03/11 05:26:54;;;;;;;2.25;0.80;;;7.30;46.10;;;;;;5053389;28;20032;-73
2023/03/11 05:29:20;;;;;;;0.60;0.60;;;7.40;46.20;;;;;;5039737;28;20383;-72
2023/03/11 05:31:46;;;;;;;1.88;1.13;;;7.40;46.20;;;;;;5031960;28;20025;-72
2023/03/11 05:34:13;;;;;;;1.13;0.93;;;7.40;46.40;;;;;;5033293;28;20398;-73
2023/03/11 05:36:38;;;;;;;1.10;0.82;;;7.40;46.40;;;;;;5033266;28;20124;-72
2023/03/11 05:39:04;;;;;;;1.90;0.93;;;7.40;46.60;;;;;;5033316;28;20486;-73
2023/03/11 05:41:30;;;;;;;2.92;1.58;;;7.40;46.70;;;;;;5033519;28;20033;-73
2023/03/11 05:43:56;;;;;;;1.98;1.00;;;7.40;46.70;;;;;;5033269;28;20021;-73
2023/03/11 05:46:22;;;;;;;1.48;1.23;;;7.40;46.90;;;;;;5033226;28;20036;-73
2023/03/11 05:48:48;;;;;;;2.80;0.85;;;7.40;46.90;;;;;;5067609;28;20030;-73
2023/03/11 05:51:14;;;;;;;4.43;1.02;;;7.50;47.00;;;;;;5052738;28;20045;-73
2023/03/11 05:54:01;;;;;;;1.30;1.10;;;7.50;46.90;;;;;;5051846;28;20025;-72
2023/03/11 05:56:27;;;;;;;2.38;1.05;;;7.50;46.80;;;;;;5053115;28;20052;-73
2023/03/11 05:58:55;;;;;;;2.80;1.30;;;7.60;47.10;;;;;;5042924;28;20025;-73
2023/03/11 06:01:21;;;;;;;1.85;1.30;;;7.60;47.10;;;;;;5049123;28;20041;-73
2023/03/11 06:03:47;;;;;;;1.50;0.98;;;7.60;47.30;;;;;;5053048;28;20379;-73
2023/03/11 06:06:13;;;;;;;1.30;1.10;;;7.60;47.30;;;;;;5053039;28;20037;-73
2023/03/11 06:08:40;;;;;;;2.15;1.25;;;7.60;47.10;;;;;;5051674;28;20021;-73
2023/03/11 06:11:09;;;;;;;0.93;0.82;;;7.60;47.10;;;;;;5033246;28;20375;-73
2023/03/11 06:13:36;;;;;;;1.58;0.90;;;7.60;47.70;;;;;;5032468;28;20032;-74
2023/03/11 06:16:03;;;;;;;2.55;0.88;;;7.50;46.80;;;;;;5032950;28;20537;-73
2023/03/11 06:18:29;;;;;;;1.15;0.90;;;7.60;46.50;;;;;;5050272;28;20028;-73
2023/03/11 06:20:58;;;;;;;1.15;0.80;;;7.60;46.40;;;;;;5052710;28;20462;-74
2023/03/11 06:23:25;;;;;;;1.10;0.80;;;7.50;45.80;;;;;;5052591;28;20017;-74
2023/03/11 06:26:03;;;;;;;1.13;0.80;;;7.50;46.20;;;;;;5052908;28;20024;-73
2023/03/11 06:28:28;;;;;;;0.80;0.65;;;7.50;46.20;;;;;;5046181;28;20508;-74
2023/03/11 06:31:00;;;;;;;1.10;1.00;;;7.50;46.10;;;;;;5040331;28;20025;-74
2023/03/11 06:33:26;;;;;;;1.15;0.85;;;7.50;46.10;;;;;;5054361;28;20091;-74
2023/03/11 06:35:59;;;;;;;1.65;0.90;;;7.50;46.30;;;;;;5056471;28;20466;-73
2023/03/11 06:38:25;;;;;;;4.43;0.80;;;7.60;46.30;;;;;;5055250;28;20028;-73
2023/03/11 06:40:51;;;;;;;1.75;1.08;;;7.50;46.10;;;;;;5054960;28;20272;-74
2023/03/11 06:43:18;;;;;;;1.15;0.80;;;7.50;46.40;;;;;;5054928;28;20509;-74
2023/03/11 06:45:44;;;;;;;1.15;0.85;;;7.50;46.30;;;;;;5056394;28;20029;-75
2023/03/11 06:48:09;;;;;;;1.48;0.63;;;7.50;46.70;;;;;;5056046;28;20419;-73
2023/03/11 06:50:35;;;;;;;1.80;0.90;;;7.50;46.50;;;;;;5054540;28;20045;-73
2023/03/11 06:53:05;;;;;;;1.10;0.80;;;7.50;46.50;;;;;;5054762;28;20050;-73
2023/03/11 06:55:31;;;;;;;3.05;1.23;;;7.50;46.50;;;;;;5037672;28;20022;-74
2023/03/11 06:57:59;;;;;;;1.20;0.90;;;7.60;46.60;;;;;;5036861;28;20031;-73
2023/03/11 07:00:25;;;;;;;0.57;0.57;;;7.50;46.50;;;;;;5036056;28;20471;-74
2023/03/11 07:02:50;;;;;;;0.70;0.60;;;7.60;46.70;;;;;;5035979;28;20048;-73
2023/03/11 07:05:16;;;;;;;0.80;0.80;;;7.60;46.60;;;;;;5035984;28;20029;-73
2023/03/11 07:07:42;;;;;;;3.55;1.17;;;7.70;46.60;;;;;;5035987;28;20057;-73
2023/03/11 07:10:09;;;;;;;1.98;1.05;;;7.70;46.70;;;;;;5041106;28;20059;-73
2023/03/11 07:12:35;;;;;;;2.28;0.90;;;7.70;46.70;;;;;;5055481;28;20028;-73
2023/03/11 07:15:01;;;;;;;1.40;0.80;;;7.80;46.50;;;;;;5055881;28;20421;-74
2023/03/11 07:17:27;;;;;;;2.72;1.02;;;7.80;46.40;;;;;;5055656;28;20087;-74
2023/03/11 07:19:53;;;;;;;0.80;0.70;;;7.90;46.60;;;;;;5055559;28;20496;-74
2023/03/11 07:22:19;;;;;;;2.67;0.70;;;8.00;46.20;;;;;;5055313;28;20108;-74
2023/03/11 07:24:47;;;;;;;1.05;0.80;;;8.00;46.20;;;;;;5056372;28;20029;-74
2023/03/11 07:27:12;;;;;;;1.10;0.70;;;8.10;46.10;;;;;;5055190;28;20025;-73
2023/03/11 07:29:38;;;;;;;1.00;0.80;;;8.20;46.30;;;;;;5037138;28;20479;-73
2023/03/11 07:32:06;;;;;;;3.47;1.20;;;8.30;46.30;;;;;;5058162;28;20029;-74
2023/03/11 07:34:31;;;;;;;6.38;1.00;;;8.20;45.70;;;;;;5075862;28;20021;-73
2023/03/11 07:36:57;;;;;;;1.73;1.05;;;8.30;45.70;;;;;;5060400;28;20025;-73
2023/03/11 07:39:23;;;;;;;1.70;1.00;;;8.30;45.30;;;;;;5055191;28;20024;-73
2023/03/11 07:41:49;;;;;;;1.10;0.88;;;8.30;45.50;;;;;;5053874;28;20075;-73
2023/03/11 07:44:16;;;;;;;1.45;1.00;;;8.30;45.40;;;;;;5055553;28;20060;-73
2023/03/11 07:46:43;;;;;;;2.58;1.05;;;8.30;45.40;;;;;;5042029;28;20021;-72
2023/03/11 07:49:09;;;;;;;1.92;1.00;;;8.30;45.40;;;;;;5034995;28;20052;-73
2023/03/11 07:51:38;;;;;;;2.40;0.82;;;8.30;45.40;;;;;;5054657;28;20064;-72
2023/03/11 07:54:04;;;;;;;4.28;0.82;;;8.30;45.30;;;;;;5054790;28;20028;-72
2023/03/11 07:56:33;;;;;;;1.35;0.88;;;8.30;45.30;;;;;;5054903;28;20017;-72
2023/03/11 07:59:01;;;;;;;2.55;0.73;;;8.40;45.50;;;;;;5042964;28;20105;-73
2023/03/11 08:01:35;;;;;;;1.45;0.90;;;8.40;45.30;;;;;;5034742;28;20417;-73
2023/03/11 08:04:01;;;;;;;;;;;8.50;45.10;;;;;;5075446;28;20029;-73
2023/03/11 08:06:30;;;;;;;1.50;0.75;;;8.60;45.30;;;;;;5069408;28;19919;-72
2023/03/11 08:08:58;;;;;;;1.02;0.80;;;8.60;44.80;;;;;;5059779;28;20052;-73
2023/03/11 08:11:24;;;;;;;1.08;0.80;;;8.70;44.70;;;;;;5057926;28;20028;-73
2023/03/11 08:13:50;;;;;;;3.95;1.00;;;8.70;44.60;;;;;;5050727;28;20025;-73
2023/03/11 08:16:19;;;;;;;1.05;0.85;;;8.70;44.30;;;;;;5048437;28;20017;-73
2023/03/11 08:18:49;;;;;;;2.50;0.73;;;8.70;44.30;;;;;;5058754;28;20100;-74
2023/03/11 08:21:17;;;;;;;3.20;1.10;;;8.80;44.20;;;;;;5054241;28;20037;-75
2023/03/11 08:23:46;;;;;;;1.10;0.80;;;8.80;44.10;;;;;;5041124;28;20033;-73
2023/03/11 08:26:15;;;;;;;1.05;0.70;;;8.80;43.90;;;;;;5034449;28;20024;-73
2023/03/11 08:28:41;;;;;;;1.52;0.90;;;8.90;43.80;;;;;;5033691;28;20029;-73
2023/03/11 08:31:18;;;;;;;6.75;1.20;;;8.90;44.00;;;;;;5046287;28;20402;-74
2023/03/11 08:33:48;;;;;;;2.42;0.70;;;8.90;43.80;;;;;;5043342;28;20049;-74
2023/03/11 08:36:14;;;;;;;1.73;0.80;;;8.90;44.00;;;;;;5034714;28;20025;-74
2023/03/11 08:38:40;;;;;;;5.00;1.00;;;9.00;44.50;;;;;;5034183;28;20029;-73
2023/03/11 08:41:06;;;;;;;4.60;0.80;;;9.10;43.90;;;;;;5048684;28;20025;-72
2023/03/11 08:43:32;;;;;;;2.70;0.98;;;9.10;43.90;;;;;;5052330;28;20033;-73
2023/03/11 08:46:02;;;;;;;2.17;0.65;;;9.20;43.70;;;;;;5052059;28;20029;-73
2023/03/11 08:48:28;;;;;;;1.38;0.60;;;9.20;43.50;;;;;;5049949;28;20028;-73
2023/03/11 08:50:56;;;;;;;2.30;0.82;;;9.30;43.40;;;;;;5049963;28;20041;-73
2023/03/11 08:53:22;;;;;;;0.93;0.70;;;9.30;43.00;;;;;;5052645;28;20429;-73
2023/03/11 08:55:49;;;;;;;4.13;1.30;;;9.40;43.20;;;;;;5049716;28;20025;-74
2023/03/11 08:58:15;;;;;;;4.15;1.20;;;9.40;42.90;;;;;;5048212;28;20018;-74
2023/03/11 09:00:41;;;;;;;3.83;1.08;;;9.50;43.20;;;;;;5051453;28;20470;-74
2023/03/11 09:03:07;;;;;;;2.25;0.70;;;9.50;42.80;;;;;;5051417;28;20086;-73
2023/03/11 09:05:32;;;;;;;2.88;0.90;;;9.50;42.80;;;;;;5052282;28;20029;-74
2023/03/11 09:07:58;;;;;;;2.17;0.80;;;9.60;42.60;;;;;;5052404;28;20055;-74
2023/03/11 09:10:24;;;;;;;1.55;0.93;;;9.60;42.30;;;;;;5048841;28;20024;-74
2023/03/11 09:12:50;;;;;;;2.05;0.85;;;9.70;42.90;;;;;;5055951;23;20416;-73
2023/03/11 09:15:16;;;;;;;0.68;0.55;;;9.70;42.50;;;;;;5022505;28;20124;-73
2023/03/11 09:17:41;;;;;;;1.38;0.80;;;9.70;42.10;;;;;;5027831;28;20018;-73
2023/03/11 09:20:08;;;;;;;1.00;0.70;;;9.80;42.10;;;;;;5020436;28;20033;-73
2023/03/11 09:22:33;;;;;;;0.65;0.60;;;9.90;42.10;;;;;;5021919;28;20049;-73
2023/03/11 09:24:59;;;;;;;3.40;0.75;;;9.90;41.90;;;;;;5023116;28;20118;-73
2023/03/11 09:27:25;;;;;;;0.60;0.60;;;10.00;41.90;;;;;;5021271;28;20026;-73
2023/03/11 09:29:51;;;;;;;1.60;0.80;;;10.00;41.70;;;;;;5028362;28;20045;-72
2023/03/11 09:32:17;;;;;;;2.35;0.70;;;9.90;41.60;;;;;;5021572;28;20407;-72
2023/03/11 09:34:42;;;;;;;1.67;0.82;;;9.90;41.80;;;;;;5023052;28;20021;-72
2023/03/11 09:37:08;;;;;;;1.20;0.80;;;9.90;41.80;;;;;;5022551;28;20060;-73
2023/03/11 09:39:34;;;;;;;3.00;1.02;;;9.90;41.60;;;;;;5026019;28;20029;-73
2023/03/11 09:42:11;;;;;;;1.23;0.98;;;9.90;41.70;;;;;;5023650;28;20030;-73
2023/03/11 09:44:56;;;;;;;1.52;0.80;;;9.90;41.90;;;;;;5024705;28;20079;-73
2023/03/11 09:47:27;;;;;;;;;;;9.90;41.70;;;;;;5023618;28;20095;-73
2023/03/11 09:50:28;;;;;;;2.00;0.73;;;9.90;41.60;;;;;;5018790;28;19913;-73
2023/03/11 09:53:14;;;;;;;4.10;0.90;;;9.90;41.40;;;;;;5020930;28;20022;-73
2023/03/11 09:55:45;;;;;;;2.40;0.70;;;9.90;41.50;;;;;;5022571;28;20506;-73
2023/03/11 09:58:29;;;;;;;1.58;0.82;;;9.90;41.10;;;;;;5023854;28;20025;-75
2023/03/11 10:00:55;;;;;;;2.03;0.85;;;10.00;41.50;;;;;;5021037;28;20076;-74
2023/03/11 10:03:34;;;;;;;1.55;0.88;;;10.10;40.80;;;;;;5026355;28;20535;-74
2023/03/11 10:06:14;;;;;;;2.83;1.10;;;10.10;40.90;;;;;;5026274;28;20062;-74
2023/03/11 10:08:50;;;;;;;1.85;0.75;;;10.20;40.40;;;;;;5027895;28;20029;-75
2023/03/11 10:11:30;;;;;;;1.95;0.80;;;10.30;40.70;;;;;;5027250;28;20022;-74
2023/03/11 10:14:27;;;;;;;3.30;0.70;;;10.40;40.30;;;;;;5024205;28;20058;-74
2023/03/11 10:17:00;;;;;;;2.53;0.90;;;10.40;40.40;;;;;;5023503;28;20105;-75
2023/03/11 10:19:58;;;;;;;0.80;0.80;;;10.50;40.00;;;;;;5023580;28;20026;-75
2023/03/11 10:22:42;;;;;;;2.88;0.70;;;10.40;39.30;;;;;;4994605;28;20029;-74
2023/03/11 10:25:15;;;;;;;2.15;0.95;;;10.40;39.50;;;;;;5020947;28;20048;-74
2023/03/11 10:28:04;;;;;;;1.95;0.93;;;10.30;39.70;;;;;;5016144;28;20029;-74
2023/03/11 10:31:02;;;;;;;1.27;0.75;;;10.30;39.80;;;;;;5023456;28;20037;-74
2023/03/11 10:33:28;;;;;;;5.75;0.73;;;10.30;40.40;;;;;;4993927;28;20080;-74
2023/03/11 10:35:58;;;;;;;2.88;1.10;;;10.30;39.40;;;;;;5025245;28;20116;-74
2023/03/11 10:38:39;;;;;;;4.45;1.02;;;10.30;39.70;;;;;;5023355;28;20363;-74
2023/03/11 10:41:31;;;;;;;2.15;0.80;;;10.40;39.40;;;;;;5018510;28;20031;-74
2023/03/11 10:44:06;;;;;;;1.98;0.75;;;10.50;40.20;;;;;;5026370;28;20029;-74
2023/03/11 10:46:31;;;;;;;0.85;0.80;;;10.60;38.80;;;;;;5023454;28;20068;-74
2023/03/11 10:48:58;;;;;;;1.00;0.73;;;10.60;38.30;;;;;;5023991;28;20379;-74
2023/03/11 10:51:34;;;;;;;1.38;0.73;;;10.60;37.90;;;;;;5026417;28;20072;-73
2023/03/11 10:54:07;;;;;;;2.50;0.98;;;10.60;37.80;;;;;;5020752;28;20364;-74
2023/03/11 10:56:39;;;;;;;2.33;0.85;;;10.70;37.20;;;;;;5023836;28;20022;-74
2023/03/11 10:59:23;;;;;;;1.33;0.80;;;10.60;37.20;;;;;;5021825;28;20018;-73
2023/03/11 11:02:00;;;;;;;1.42;0.80;;;10.60;37.60;;;;;;5023745;28;20018;-73
2023/03/11 11:04:38;;;;;;;1.15;0.68;;;10.60;37.70;;;;;;5022420;28;20379;-73
2023/03/11 11:07:40;;;;;;;1.50;0.57;;;10.60;38.00;;;;;;5024166;28;20021;-73
2023/03/11 11:10:25;;;;;;;1.13;0.65;;;10.70;38.20;;;;;;4963946;28;20027;-74
2023/03/11 11:13:18;;;;;;;0.98;0.65;;;10.70;38.20;;;;;;4944777;28;20408;-74
2023/03/11 11:16:05;;;;;;;1.38;0.80;;;10.70;37.90;;;;;;4948113;28;20019;-74
2023/03/11 11:18:44;;;;;;;1.42;0.70;;;10.70;37.20;;;;;;4959573;28;20038;-73
2023/03/11 11:21:32;;;;;;;1.73;0.80;;;10.70;36.60;;;;;;4961789;28;20042;-74
2023/03/11 11:24:26;;;;;;;1.65;0.80;;;10.80;37.50;;;;;;4963251;28;20066;-74
2023/03/11 11:27:10;;;;;;;2.33;0.80;;;10.90;37.70;;;;;;4955989;28;20098;-74
2023/03/11 11:29:36;;;;;;;;;;;11.00;38.00;;;;;;4958934;28;20120;-73
2023/03/11 11:32:29;;;;;;;2.53;0.70;;;11.10;38.80;;;;;;4960850;28;19918;-74
2023/03/11 11:35:01;;;;;;;1.70;0.80;;;11.20;37.30;;;;;;4961256;28;20027;-75
2023/03/11 11:37:33;;;;;;;2.00;0.90;;;11.30;37.00;;;;;;4959829;28;20035;-74
2023/03/11 11:40:32;;;;;;;1.98;0.60;;;11.20;36.30;;;;;;4962563;28;20435;-74
2023/03/11 11:43:16;;;;;;;1.13;0.70;;;11.10;36.40;;;;;;4960150;28;20202;-74
2023/03/11 11:45:48;;;;;;;1.02;0.70;;;11.00;36.40;;;;;;5023789;28;20025;-74
2023/03/11 11:48:18;;;;;;;1.15;0.68;;;10.90;36.70;;;;;;5020583;28;20020;-75
2023/03/11 11:50:50;;;;;;;1.10;0.68;;;10.90;37.20;;;;;;5022195;28;20021;-73
2023/03/11 11:53:35;;;;;;;1.05;0.70;;;10.80;37.20;;;;;;5024155;28;20014;-73
2023/03/11 11:56:01;;;;;;;0.63;0.55;;;10.80;36.80;;;;;;5017717;28;20395;-74
2023/03/11 11:58:27;;;;;;;0.63;0.63;;;10.70;36.70;;;;;;5021311;28;20030;-74
2023/03/11 12:01:08;;;;;;;2.85;0.60;;;10.60;36.70;;;;;;5023600;28;20505;-74
2023/03/11 12:03:53;;;;;;;0.52;0.50;;;10.50;36.90;;;;;;5020481;28;20029;-73
2023/03/11 12:06:39;;;;;;;1.48;0.77;;;10.50;37.30;;;;;;5023087;28;20026;-74
2023/03/11 12:09:23;;;;;;;2.28;0.70;;;10.50;37.80;;;;;;5022987;28;20028;-74
2023/03/11 12:12:21;;;;;;;0.85;0.68;;;10.50;38.50;;;;;;5022669;28;20043;-73
2023/03/11 12:15:14;;;;;;;2.90;0.95;;;10.40;38.80;;;;;;5020892;28;20038;-74
2023/03/11 12:17:44;;;;;;;1.30;0.65;;;10.40;39.10;;;;;;5020316;28;20079;-74
2023/03/11 12:20:49;;;;;;;1.10;0.60;;;10.30;39.10;;;;;;5014300;28;20045;-74
2023/03/11 12:23:17;;;;;;;;;;;10.20;39.30;;;;;;4959846;28;20028;-74
2023/03/11 12:26:02;;;;;;;1.75;0.70;;;10.30;39.80;;;;;;4963215;28;19906;-73
2023/03/11 12:28:49;;;;;;;4.43;1.05;;;10.30;39.70;;;;;;4958951;28;20114;-73
2023/03/11 12:31:15;;;;;;;1.33;0.82;;;10.30;39.70;;;;;;4964692;28;20114;-74
2023/03/11 12:34:02;;;;;;;5.95;0.90;;;10.40;39.80;;;;;;4958417;28;20426;-73
2023/03/11 12:36:34;;;;;;;1.13;0.65;;;10.40;39.30;;;;;;4962006;28;20026;-73
2023/03/11 12:39:04;;;;;;;0.85;0.60;;;10.40;39.40;;;;;;4959953;28;20912;-73
2023/03/11 12:41:41;;;;;;;1.35;0.52;;;10.50;39.10;;;;;;4945222;28;20039;-73
2023/03/11 12:44:28;;;;;;;2.47;0.77;;;10.50;38.90;;;;;;4960150;28;20039;-73
2023/03/11 12:47:16;;;;;;;4.88;1.27;;;10.60;38.70;;;;;;4958289;28;20039;-73
2023/03/11 12:49:45;;;;;;;2.10;0.70;;;10.60;38.90;;;;;;4959331;28;20066;-73
2023/03/11 12:52:12;;;;;;;1.90;0.75;;;10.80;39.00;;;;;;4961226;28;20085;-74
2023/03/11 12:54:44;;;;;;;1.40;0.65;;;10.80;38.30;;;;;;4959630;28;20466;-73
2023/03/11 12:57:19;;;;;;;2.28;0.80;;;10.90;38.70;;;;;;4988929;28;20060;-73
2023/03/11 12:59:59;;;;;;;2.72;0.90;;;11.00;38.10;;;;;;5018314;28;20494;-73
2023/03/11 13:02:53;;;;;;;0.80;0.68;;;11.10;38.10;;;;;;5020437;28;20050;-73
2023/03/11 13:05:50;;;;;;;2.42;0.50;;;11.10;37.20;;;;;;5023234;28;20013;-74
2023/03/11 13:08:44;;;;;;;1.35;0.52;;;11.20;36.80;;;;;;5021973;28;20396;-73
2023/03/11 13:11:32;;;;;;;2.80;0.80;;;11.20;36.70;;;;;;5014683;28;20072;-73
2023/03/11 13:14:31;;;;;;;1.02;0.73;;;11.30;36.80;;;;;;5022985;28;20071;-73